KLGD

Details ICAO KLGD
Name LA GRANDE UNION CO
Region United States
Timezone America/Los_Angeles (UTC-7.0)
Plans Departing 8
Arriving 7
Stats Elevation 2,717 ft / 828 m (AMSL)
Location 45.290238° -118.007736°
Runways 2
Magnetic Variation 14.163° E
Sunrise 2018-05-22 12:16:14 UTC / 2018-05-22 05:16:14 Local
Sunset 2018-05-23 03:24:04 UTC / 2018-05-22 20:24:04 Local
Advertisement - Login to hide

Runways

ID Width Length Bearing (true) Bearing (mag) Surface Threshold Offset Overrun Length
12 100 ft / 30 m 5,593 ft / 1,705 m 135.12° 120.96° Asphalt 0 ft / 0 m 0 ft / 0 m
16 60 ft / 18 m 3,879 ft / 1,182 m 180.00° 165.84° Asphalt 486 ft / 148 m 0 ft / 0 m
30 100 ft / 30 m 5,593 ft / 1,705 m 315.13° 300.97° Asphalt 0 ft / 0 m 0 ft / 0 m
34 60 ft / 18 m 3,879 ft / 1,182 m 0.00° 345.84° Asphalt 0 ft / 0 m 0 ft / 0 m

Map

Weather


0- 5 10 15 20 25 30 35+ Temperature / ° C

Clouds and Precipitation
Forecast for 2018-05-23 00:00 UTC. Updated 27 minutes ago

Ground ~20,000 ft ~40,000 ft Winds

METAR

KLGD 222324Z AUTO 28014KT 10SM CLR 26/13 A2982 RMK AO2 WSHFT 2243 LTG DSNT SE AND SW TSB2259E18

TAF

Not found

Frequencies

Recorded 135.07 MHz AWOS 3
Unicom 122.80 MHz CTAF/UNICOM
Warning: Do not use this data for real-world aviation or navigation. No guarantee of current accuracy is given.